createdAt,value
2017-11-04T00:00:53.212Z,0
2017-11-04T00:02:02.566Z,0
2017-11-04T00:03:11.916Z,0
2017-11-04T00:04:21.270Z,0
2017-11-04T00:05:30.632Z,0
2017-11-04T00:06:40.315Z,0
2017-11-04T00:07:50.348Z,0
2017-11-04T00:08:59.351Z,0
2017-11-04T00:10:09.037Z,0
2017-11-04T00:11:18.722Z,0
2017-11-04T00:12:28.418Z,0
2017-11-04T00:13:37.106Z,0
2017-11-04T00:14:46.125Z,0
2017-11-04T00:15:55.813Z,0
2017-11-04T00:17:04.879Z,0
2017-11-04T00:18:14.560Z,0
2017-11-04T00:19:23.583Z,0
2017-11-04T00:20:33.268Z,0
2017-11-04T00:21:42.013Z,0
2017-11-04T00:22:51.037Z,0
2017-11-04T00:24:00.059Z,0
2017-11-04T00:25:09.747Z,0
2017-11-04T00:26:18.766Z,0
2017-11-04T00:27:28.446Z,0
2017-11-04T00:28:37.469Z,0
2017-11-04T00:29:46.486Z,0
2017-11-04T00:30:55.509Z,0
2017-11-04T00:32:04.298Z,0
2017-11-04T00:33:13.320Z,0
2017-11-04T00:34:22.350Z,0
2017-11-04T00:35:31.702Z,0
2017-11-04T00:36:40.391Z,0
2017-11-04T00:37:49.411Z,0
2017-11-04T00:38:58.768Z,0
2017-11-04T00:40:08.122Z,0
2017-11-04T00:41:17.141Z,0
2017-11-04T00:42:27.163Z,0
2017-11-04T00:43:36.188Z,0
2017-11-04T00:44:45.214Z,0
2017-11-04T00:45:54.236Z,0
2017-11-04T00:47:03.587Z,0
2017-11-04T00:48:12.611Z,0
2017-11-04T00:49:21.299Z,0
2017-11-04T00:50:30.650Z,0
2017-11-04T00:51:40.004Z,0
2017-11-04T00:52:49.028Z,0
2017-11-04T00:53:58.710Z,0
2017-11-04T00:55:07.732Z,0
2017-11-04T00:56:16.755Z,0
2017-11-04T00:57:26.105Z,0
2017-11-04T00:58:35.470Z,0
2017-11-04T00:59:45.170Z,0
2017-11-04T01:00:54.872Z,0
2017-11-04T01:02:03.896Z,0
2017-11-04T01:03:13.643Z,0
2017-11-04T01:04:23.327Z,0
2017-11-04T01:05:32.688Z,0
2017-11-04T01:06:42.048Z,0
2017-11-04T01:07:51.406Z,0
2017-11-04T01:09:00.094Z,0
2017-11-04T01:10:09.785Z,0
2017-11-04T01:11:18.805Z,0
2017-11-04T01:12:27.824Z,0
2017-11-04T01:13:36.844Z,0
2017-11-04T01:14:46.196Z,0
2017-11-04T01:15:55.891Z,0
2017-11-04T01:17:04.911Z,0
2017-11-04T01:18:14.600Z,0
2017-11-04T01:19:23.620Z,0
2017-11-04T01:20:32.646Z,0
2017-11-04T01:21:41.666Z,0
2017-11-04T01:22:50.688Z,0
2017-11-04T01:24:00.043Z,0
2017-11-04T01:25:09.391Z,0
2017-11-04T01:26:18.748Z,0
2017-11-04T01:27:28.115Z,0
2017-11-04T01:28:36.808Z,0
2017-11-04T01:29:46.522Z,0
2017-11-04T01:30:55.884Z,0
2017-11-04T01:32:04.576Z,0
2017-11-04T01:33:13.270Z,0
2017-11-04T01:34:23.012Z,0
2017-11-04T01:35:32.035Z,0
2017-11-04T01:36:41.392Z,0
2017-11-04T01:37:50.753Z,0
2017-11-04T01:39:00.108Z,0
2017-11-04T01:40:09.792Z,0
2017-11-04T01:41:18.812Z,0
2017-11-04T01:42:27.834Z,0
2017-11-04T01:43:37.855Z,0
2017-11-04T01:44:46.547Z,0
2017-11-04T01:45:55.567Z,0
2017-11-04T01:47:04.585Z,0
2017-11-04T01:48:13.605Z,0
2017-11-04T01:49:22.294Z,0
2017-11-04T01:50:30.986Z,0
2017-11-04T01:51:40.675Z,0
2017-11-04T01:52:49.702Z,0
2017-11-04T01:53:58.387Z,0
2017-11-04T01:55:07.456Z,0
2017-11-04T01:56:16.485Z,0
2017-11-04T01:57:25.843Z,0
2017-11-04T01:58:34.536Z,0
2017-11-04T01:59:43.226Z,0
2017-11-04T02:00:52.914Z,0
2017-11-04T02:02:01.932Z,0
2017-11-04T02:03:10.622Z,0
2017-11-04T02:04:19.981Z,0
2017-11-04T02:05:29.341Z,0
2017-11-04T02:06:38.050Z,0
2017-11-04T02:07:47.050Z,0
2017-11-04T02:08:56.735Z,0
2017-11-04T02:10:05.756Z,0
2017-11-04T02:11:14.779Z,0
2017-11-04T02:12:23.809Z,0
2017-11-04T02:13:32.505Z,0
2017-11-04T02:14:41.525Z,0
2017-11-04T02:15:50.935Z,0
2017-11-04T02:17:00.284Z,0
2017-11-04T02:18:08.979Z,0
2017-11-04T02:19:18.661Z,0
2017-11-04T02:20:27.686Z,0
2017-11-04T02:21:37.036Z,0
2017-11-04T02:22:46.392Z,0
2017-11-04T02:23:56.077Z,0
2017-11-04T02:25:04.768Z,0
2017-11-04T02:26:13.841Z,0
2017-11-04T02:27:22.862Z,0
2017-11-04T02:28:32.215Z,0
2017-11-04T02:29:41.570Z,0
2017-11-04T02:30:50.922Z,0
2017-11-04T02:32:00.295Z,0
2017-11-04T02:33:09.656Z,0
2017-11-04T02:34:19.346Z,0
2017-11-04T02:35:29.042Z,0
2017-11-04T02:36:38.065Z,0
2017-11-04T02:37:48.077Z,0
2017-11-04T02:38:57.106Z,0
2017-11-04T02:40:06.130Z,0
2017-11-04T02:41:15.161Z,0
2017-11-04T02:42:24.522Z,0
2017-11-04T02:43:33.873Z,0
2017-11-04T02:44:43.236Z,0
2017-11-04T02:45:52.918Z,0
2017-11-04T02:47:02.269Z,0
2017-11-04T02:48:11.624Z,0
2017-11-04T02:49:20.980Z,0
2017-11-04T02:50:30.352Z,0
2017-11-04T02:51:39.707Z,0
2017-11-04T02:52:49.392Z,0
2017-11-04T02:53:58.416Z,0
2017-11-04T02:55:07.441Z,0
2017-11-04T02:56:16.462Z,0
2017-11-04T02:57:25.543Z,0
2017-11-04T02:58:34.231Z,0
2017-11-04T02:59:43.264Z,0
2017-11-04T03:00:52.967Z,0
2017-11-04T03:02:02.324Z,0
2017-11-04T03:03:11.680Z,0
2017-11-04T03:04:20.372Z,0
2017-11-04T03:05:30.063Z,0
2017-11-04T03:06:39.755Z,0
2017-11-04T03:07:49.110Z,0
2017-11-04T03:08:57.856Z,0
2017-11-04T03:10:06.536Z,0
2017-11-04T03:11:15.224Z,0
2017-11-04T03:12:24.914Z,0
2017-11-04T03:13:33.603Z,0
2017-11-04T03:14:42.623Z,0
2017-11-04T03:15:51.314Z,0
2017-11-04T03:17:00.001Z,0
2017-11-04T03:18:09.355Z,0
2017-11-04T03:19:18.703Z,0
2017-11-04T03:20:28.402Z,0
2017-11-04T03:21:38.097Z,0
2017-11-04T03:22:47.120Z,0
2017-11-04T03:23:55.808Z,0
2017-11-04T03:25:04.830Z,0
2017-11-04T03:26:13.852Z,0
2017-11-04T03:27:22.873Z,0
2017-11-04T03:28:31.898Z,0
2017-11-04T03:29:41.254Z,0
2017-11-04T03:30:50.961Z,0
2017-11-04T03:32:00.034Z,0
2017-11-04T03:33:09.394Z,0
2017-11-04T03:34:18.088Z,0
2017-11-04T03:35:27.119Z,0
2017-11-04T03:36:35.806Z,0
2017-11-04T03:37:45.223Z,0
2017-11-04T03:38:53.911Z,0
2017-11-04T03:40:02.608Z,0
2017-11-04T03:41:11.292Z,0
2017-11-04T03:42:20.645Z,0
2017-11-04T03:43:30.007Z,0
2017-11-04T03:44:38.700Z,0
2017-11-04T03:45:47.723Z,0
2017-11-04T03:46:57.080Z,0
2017-11-04T03:48:05.769Z,0
2017-11-04T03:49:15.123Z,0
2017-11-04T03:50:24.143Z,0
2017-11-04T03:51:33.168Z,0
2017-11-04T03:52:42.526Z,0
2017-11-04T03:53:51.885Z,0
2017-11-04T03:55:01.288Z,0
2017-11-04T03:56:10.313Z,0
2017-11-04T03:57:19.334Z,0
2017-11-04T03:58:28.351Z,0
2017-11-04T03:59:37.703Z,0
2017-11-04T04:00:46.395Z,0
2017-11-04T04:01:55.420Z,0
2017-11-04T04:03:05.137Z,0
2017-11-04T04:04:14.491Z,0
2017-11-04T04:05:23.845Z,0
2017-11-04T04:06:33.198Z,0
2017-11-04T04:07:42.551Z,0
2017-11-04T04:08:51.575Z,0
2017-11-04T04:10:00.599Z,0
2017-11-04T04:11:09.949Z,0
2017-11-04T04:12:18.972Z,0
2017-11-04T04:13:28.672Z,0
2017-11-04T04:14:37.696Z,0
2017-11-04T04:15:47.394Z,0
2017-11-04T04:16:57.087Z,0
2017-11-04T04:18:06.115Z,0
2017-11-04T04:19:14.798Z,0
2017-11-04T04:20:23.856Z,0
2017-11-04T04:21:32.547Z,0
2017-11-04T04:22:42.233Z,0
2017-11-04T04:23:51.591Z,0
2017-11-04T04:25:01.280Z,0
2017-11-04T04:26:11.314Z,0
2017-11-04T04:27:20.331Z,0
2017-11-04T04:28:29.015Z,0
2017-11-04T04:29:37.704Z,0
2017-11-04T04:30:46.392Z,0
2017-11-04T04:31:55.415Z,0
2017-11-04T04:33:04.115Z,0
2017-11-04T04:34:13.469Z,0
2017-11-04T04:35:22.491Z,0
2017-11-04T04:36:31.511Z,0
2017-11-04T04:37:40.867Z,0
2017-11-04T04:38:49.888Z,0
2017-11-04T04:39:59.244Z,0
2017-11-04T04:41:08.270Z,0
2017-11-04T04:42:17.625Z,0
2017-11-04T04:43:27.010Z,0
2017-11-04T04:44:36.362Z,0
2017-11-04T04:45:45.730Z,0
2017-11-04T04:46:54.422Z,0
2017-11-04T04:48:03.107Z,0
2017-11-04T04:49:12.461Z,0
2017-11-04T04:50:21.822Z,0
2017-11-04T04:51:31.177Z,0
2017-11-04T04:52:39.867Z,0
2017-11-04T04:53:49.556Z,0
2017-11-04T04:54:58.586Z,0
2017-11-04T04:56:07.610Z,0
2017-11-04T04:57:16.631Z,0
2017-11-04T04:58:25.652Z,0
2017-11-04T04:59:35.335Z,0
2017-11-04T05:00:44.689Z,0
2017-11-04T05:01:54.385Z,0
2017-11-04T05:03:04.139Z,0
2017-11-04T05:04:13.497Z,0
2017-11-04T05:05:22.853Z,0
2017-11-04T05:06:32.535Z,0
2017-11-04T05:07:42.217Z,0
2017-11-04T05:08:50.911Z,0
2017-11-04T05:09:59.618Z,0
2017-11-04T05:11:08.951Z,0
2017-11-04T05:12:17.645Z,0
2017-11-04T05:13:26.679Z,0
2017-11-04T05:14:36.363Z,0
2017-11-04T05:15:45.716Z,0
2017-11-04T05:16:54.739Z,0
2017-11-04T05:18:04.098Z,0
2017-11-04T05:19:13.452Z,0
2017-11-04T05:20:22.143Z,0
2017-11-04T05:21:31.493Z,0
2017-11-04T05:22:40.843Z,0
2017-11-04T05:23:49.914Z,0
2017-11-04T05:24:58.938Z,0
2017-11-04T05:26:07.628Z,0
2017-11-04T05:27:16.985Z,0
2017-11-04T05:28:26.005Z,0
2017-11-04T05:29:35.025Z,0
2017-11-04T05:30:44.378Z,0
2017-11-04T05:31:53.734Z,0
2017-11-04T05:33:02.438Z,0
2017-11-04T05:34:11.450Z,0
2017-11-04T05:35:20.139Z,0
2017-11-04T05:36:29.496Z,0
2017-11-04T05:37:38.845Z,0
2017-11-04T05:38:48.202Z,0
2017-11-04T05:39:57.552Z,0
2017-11-04T05:41:06.901Z,0
2017-11-04T05:42:16.592Z,0
2017-11-04T05:43:25.944Z,0
2017-11-04T05:44:35.630Z,0
2017-11-04T05:45:44.654Z,0
2017-11-04T05:46:54.012Z,0
2017-11-04T05:48:03.701Z,0
2017-11-04T05:49:13.056Z,0
2017-11-04T05:50:22.410Z,0
2017-11-04T05:51:31.430Z,0
2017-11-04T05:52:40.797Z,0
2017-11-04T05:53:50.484Z,0
2017-11-04T05:54:59.507Z,0
2017-11-04T05:56:08.530Z,0
2017-11-04T05:57:18.222Z,0
2017-11-04T05:58:27.569Z,0
2017-11-04T05:59:36.259Z,0
2017-11-04T06:00:45.613Z,0
2017-11-04T06:01:54.969Z,0
2017-11-04T06:03:04.662Z,0
2017-11-04T06:04:14.017Z,0
2017-11-04T06:05:23.106Z,0
2017-11-04T06:06:32.127Z,0
2017-11-04T06:07:41.481Z,0
2017-11-04T06:08:50.831Z,0
2017-11-04T06:09:59.521Z,0
2017-11-04T06:11:08.545Z,0
2017-11-04T06:12:17.594Z,0
2017-11-04T06:13:26.615Z,0
2017-11-04T06:14:35.307Z,0
2017-11-04T06:15:45.040Z,0
2017-11-04T06:16:54.062Z,0
2017-11-04T06:18:03.083Z,0
2017-11-04T06:19:12.113Z,0
2017-11-04T06:20:21.488Z,0
2017-11-04T06:21:30.865Z,0
2017-11-04T06:22:39.893Z,0
2017-11-04T06:23:48.911Z,0
2017-11-04T06:24:58.269Z,0
2017-11-04T06:26:07.633Z,0
2017-11-04T06:27:16.655Z,0
2017-11-04T06:28:25.675Z,0
2017-11-04T06:29:35.029Z,0
2017-11-04T06:30:44.049Z,0
2017-11-04T06:31:53.399Z,0
2017-11-04T06:33:03.090Z,0
2017-11-04T06:34:12.113Z,0
2017-11-04T06:35:20.805Z,0
2017-11-04T06:36:29.821Z,0
2017-11-04T06:37:38.843Z,0
2017-11-04T06:38:48.202Z,0
2017-11-04T06:39:57.222Z,0
2017-11-04T06:41:06.244Z,0
2017-11-04T06:42:15.594Z,0
2017-11-04T06:43:24.280Z,0
2017-11-04T06:44:32.971Z,0
2017-11-04T06:45:41.992Z,0
2017-11-04T06:46:51.012Z,0
2017-11-04T06:48:00.030Z,0
2017-11-04T06:49:09.049Z,0
2017-11-04T06:50:18.072Z,0
2017-11-04T06:51:27.111Z,0
2017-11-04T06:52:36.121Z,0
2017-11-04T06:53:45.501Z,0
2017-11-04T06:54:54.856Z,0
2017-11-04T06:56:04.238Z,0
2017-11-04T06:57:13.642Z,0
2017-11-04T06:58:22.998Z,0
2017-11-04T06:59:32.020Z,0
2017-11-04T07:00:41.376Z,0
2017-11-04T07:01:50.399Z,0
2017-11-04T07:02:59.425Z,0
2017-11-04T07:04:08.439Z,0
2017-11-04T07:05:17.461Z,5
2017-11-04T07:06:26.482Z,5
2017-11-04T07:07:35.552Z,10
2017-11-04T07:08:44.904Z,10
2017-11-04T07:09:54.588Z,10
2017-11-04T07:11:03.945Z,10
2017-11-04T07:12:12.968Z,10
2017-11-04T07:13:22.320Z,10
2017-11-04T07:14:31.344Z,10
2017-11-04T07:15:40.364Z,15
2017-11-04T07:16:49.383Z,10
2017-11-04T07:17:58.742Z,10
2017-11-04T07:19:07.764Z,10
2017-11-04T07:20:16.785Z,10
2017-11-04T07:21:25.805Z,10
2017-11-04T07:22:35.174Z,10
2017-11-04T07:23:44.531Z,10
2017-11-04T07:24:53.884Z,10
2017-11-04T07:26:02.576Z,10
2017-11-04T07:27:11.925Z,10
2017-11-04T07:28:20.946Z,5
2017-11-04T07:29:29.971Z,10
2017-11-04T07:30:39.323Z,10
2017-11-04T07:31:48.342Z,10
2017-11-04T07:32:57.366Z,10
2017-11-04T07:34:06.386Z,10
2017-11-04T07:35:15.075Z,10
2017-11-04T07:36:24.764Z,10
2017-11-04T07:37:33.463Z,10
2017-11-04T07:38:42.482Z,15
2017-11-04T07:39:51.171Z,15
2017-11-04T07:41:00.192Z,20
2017-11-04T07:42:08.880Z,15
2017-11-04T07:43:18.243Z,15
2017-11-04T07:44:27.265Z,15
2017-11-04T07:45:36.617Z,10
2017-11-04T07:46:45.312Z,10
2017-11-04T07:47:54.338Z,5
2017-11-04T07:49:03.030Z,5
2017-11-04T07:50:12.054Z,10
2017-11-04T07:51:20.741Z,10
2017-11-04T07:52:29.430Z,10
2017-11-04T07:53:38.498Z,10
2017-11-04T07:54:47.518Z,20
2017-11-04T07:55:56.866Z,20
2017-11-04T07:57:06.222Z,20
2017-11-04T07:58:15.581Z,15
2017-11-04T07:59:25.620Z,15
2017-11-04T08:00:35.300Z,20
2017-11-04T08:01:43.990Z,15
2017-11-04T08:02:53.009Z,15
2017-11-04T08:04:02.035Z,15
2017-11-04T08:05:11.393Z,15
2017-11-04T08:06:20.416Z,20
2017-11-04T08:07:30.433Z,20
2017-11-04T08:08:39.465Z,35
2017-11-04T08:09:48.490Z,45
2017-11-04T08:10:57.844Z,40
2017-11-04T08:12:06.863Z,30
2017-11-04T08:13:16.214Z,40
2017-11-04T08:14:25.234Z,40
2017-11-04T08:15:34.586Z,40
2017-11-04T08:16:43.937Z,45
2017-11-04T08:17:52.965Z,60
2017-11-04T08:19:02.660Z,55
2017-11-04T08:20:12.013Z,45
2017-11-04T08:21:21.370Z,35
2017-11-04T08:22:30.391Z,45
2017-11-04T08:23:39.083Z,40
2017-11-04T08:24:47.772Z,50
2017-11-04T08:25:57.130Z,50
2017-11-04T08:27:05.823Z,40
2017-11-04T08:28:14.613Z,65
2017-11-04T08:29:23.966Z,110
2017-11-04T08:30:33.651Z,55
2017-11-04T08:31:42.345Z,110
2017-11-04T08:32:51.034Z,110
2017-11-04T08:34:00.052Z,85
2017-11-04T08:35:09.072Z,65
2017-11-04T08:36:17.762Z,60
2017-11-04T08:37:27.121Z,65
2017-11-04T08:38:36.807Z,70
2017-11-04T08:39:46.495Z,65
2017-11-04T08:40:55.524Z,50
2017-11-04T08:42:04.548Z,40
2017-11-04T08:43:13.913Z,50
2017-11-04T08:44:23.273Z,25
2017-11-04T08:45:32.966Z,30
2017-11-04T08:46:41.991Z,20
2017-11-04T08:47:52.011Z,25
2017-11-04T08:49:01.358Z,20
2017-11-04T08:50:10.384Z,15
2017-11-04T08:51:19.742Z,20
2017-11-04T08:52:28.431Z,15
2017-11-04T08:53:37.783Z,15
2017-11-04T08:54:47.468Z,20
2017-11-04T08:55:56.159Z,20
2017-11-04T08:57:05.181Z,25
2017-11-04T08:58:13.873Z,20
2017-11-04T08:59:22.894Z,20
2017-11-04T09:00:31.582Z,10
2017-11-04T09:01:40.607Z,5
2017-11-04T09:02:49.961Z,5
2017-11-04T09:03:58.980Z,5
2017-11-04T09:05:08.333Z,5
2017-11-04T09:06:17.353Z,10
2017-11-04T09:07:27.036Z,10
2017-11-04T09:08:36.063Z,15
2017-11-04T09:09:45.093Z,20
2017-11-04T09:10:54.116Z,25
2017-11-04T09:12:03.142Z,30
2017-11-04T09:13:12.167Z,25
2017-11-04T09:14:20.864Z,35
2017-11-04T09:15:30.238Z,45
2017-11-04T09:16:39.256Z,50
2017-11-04T09:17:48.998Z,75
2017-11-04T09:18:58.018Z,55
2017-11-04T09:20:08.036Z,50
2017-11-04T09:21:17.388Z,40
2017-11-04T09:22:27.071Z,25
2017-11-04T09:23:36.094Z,25
2017-11-04T09:24:45.118Z,40
2017-11-04T09:25:54.804Z,55
2017-11-04T09:27:04.153Z,30
2017-11-04T09:28:13.505Z,30
2017-11-04T09:29:22.196Z,50
2017-11-04T09:30:31.553Z,30
2017-11-04T09:31:40.241Z,40
2017-11-04T09:32:49.267Z,20
2017-11-04T09:33:58.286Z,30
2017-11-04T09:35:08.301Z,25
2017-11-04T09:36:17.987Z,20
2017-11-04T09:37:27.339Z,20
2017-11-04T09:38:36.697Z,20
2017-11-04T09:39:45.388Z,25
2017-11-04T09:40:54.741Z,30
2017-11-04T09:42:04.094Z,35
2017-11-04T09:43:12.799Z,40
2017-11-04T09:44:22.159Z,30
2017-11-04T09:45:31.841Z,40
2017-11-04T09:46:41.192Z,50
2017-11-04T09:47:50.214Z,30
2017-11-04T09:48:59.569Z,45
2017-11-04T09:50:08.593Z,35
2017-11-04T09:51:17.618Z,75
2017-11-04T09:52:26.309Z,200
2017-11-04T09:53:35.663Z,65
2017-11-04T09:54:45.023Z,155
2017-11-04T09:55:54.044Z,365
2017-11-04T09:57:02.736Z,290
2017-11-04T09:58:12.091Z,80
2017-11-04T09:59:21.116Z,100
2017-11-04T10:00:30.800Z,85
2017-11-04T10:01:39.487Z,145
2017-11-04T10:02:48.510Z,135
2017-11-04T10:03:57.535Z,135
2017-11-04T10:05:06.559Z,220
2017-11-04T10:06:15.915Z,165
2017-11-04T10:07:24.605Z,530
2017-11-04T10:08:34.296Z,285
2017-11-04T10:09:43.654Z,90
2017-11-04T10:10:52.690Z,180
2017-11-04T10:12:01.379Z,200
2017-11-04T10:13:10.406Z,185
2017-11-04T10:14:19.095Z,100
2017-11-04T10:15:28.117Z,70
2017-11-04T10:16:37.137Z,200
2017-11-04T10:17:45.829Z,165
2017-11-04T10:18:54.518Z,75
2017-11-04T10:20:03.871Z,195
2017-11-04T10:21:13.225Z,245
2017-11-04T10:22:22.578Z,200
2017-11-04T10:23:31.602Z,225
2017-11-04T10:24:40.623Z,195
2017-11-04T10:25:49.980Z,180
2017-11-04T10:26:59.335Z,145
2017-11-04T10:28:09.351Z,140
2017-11-04T10:29:18.041Z,180
2017-11-04T10:30:27.729Z,215
2017-11-04T10:31:36.754Z,280
2017-11-04T10:32:45.444Z,250
2017-11-04T10:33:54.800Z,170
2017-11-04T10:35:04.158Z,155
2017-11-04T10:36:13.182Z,140
2017-11-04T10:37:22.210Z,180
2017-11-04T10:38:31.573Z,120
2017-11-04T10:39:40.926Z,100
2017-11-04T10:40:50.941Z,105
2017-11-04T10:41:59.966Z,120
2017-11-04T10:43:08.991Z,115
2017-11-04T10:44:18.674Z,165
2017-11-04T10:45:27.369Z,380
2017-11-04T10:46:36.732Z,610
2017-11-04T10:47:45.755Z,595
2017-11-04T10:48:54.445Z,240
2017-11-04T10:50:03.466Z,345
2017-11-04T10:51:12.496Z,525
2017-11-04T10:52:21.848Z,215
2017-11-04T10:53:31.213Z,205
2017-11-04T10:54:40.237Z,100
2017-11-04T10:55:49.595Z,95
2017-11-04T10:56:58.284Z,110
2017-11-04T10:58:07.311Z,95
2017-11-04T10:59:15.999Z,70
2017-11-04T11:00:25.363Z,60
2017-11-04T11:01:34.924Z,55
2017-11-04T11:02:44.611Z,65
2017-11-04T11:03:53.969Z,85
2017-11-04T11:05:02.996Z,110
2017-11-04T11:06:12.023Z,115
2017-11-04T11:07:20.716Z,175
2017-11-04T11:08:29.411Z,480
2017-11-04T11:09:39.431Z,165
2017-11-04T11:10:48.798Z,150
2017-11-04T11:11:57.825Z,410
2017-11-04T11:13:07.182Z,365
2017-11-04T11:14:16.208Z,520
2017-11-04T11:15:25.228Z,470
2017-11-04T11:16:34.584Z,180
2017-11-04T11:17:43.939Z,215
2017-11-04T11:18:52.634Z,175
2017-11-04T11:20:01.658Z,125
2017-11-04T11:21:10.355Z,260
2017-11-04T11:22:19.377Z,165
2017-11-04T11:23:28.402Z,150
2017-11-04T11:24:37.757Z,110
2017-11-04T11:25:47.112Z,90
2017-11-04T11:26:56.136Z,75
2017-11-04T11:28:05.494Z,90
2017-11-04T11:29:14.520Z,105
2017-11-04T11:30:23.890Z,100
2017-11-04T11:31:33.587Z,100
2017-11-04T11:32:42.947Z,130
2017-11-04T11:33:52.303Z,180
2017-11-04T11:35:01.327Z,180
2017-11-04T11:36:10.019Z,150
2017-11-04T11:37:19.049Z,135
2017-11-04T11:38:27.741Z,135
2017-11-04T11:39:36.767Z,125
2017-11-04T11:40:45.799Z,110
2017-11-04T11:41:55.489Z,100
2017-11-04T11:43:04.515Z,110
2017-11-04T11:44:13.870Z,105
2017-11-04T11:45:23.278Z,65
2017-11-04T11:46:32.963Z,65
2017-11-04T11:47:42.319Z,80
2017-11-04T11:48:51.010Z,85
2017-11-04T11:50:00.365Z,95
2017-11-04T11:51:09.158Z,110
2017-11-04T11:52:18.184Z,115
2017-11-04T11:53:27.206Z,115
2017-11-04T11:54:35.898Z,110
2017-11-04T11:55:45.254Z,90
2017-11-04T11:56:54.276Z,115
2017-11-04T11:58:03.301Z,115
2017-11-04T11:59:12.334Z,110
2017-11-04T12:00:21.366Z,100
2017-11-04T12:01:30.726Z,95
2017-11-04T12:02:39.568Z,85
2017-11-04T12:03:48.922Z,75
2017-11-04T12:04:57.614Z,75
2017-11-04T12:06:06.969Z,75
2017-11-04T12:07:15.990Z,80
2017-11-04T12:08:24.684Z,70
2017-11-04T12:09:34.039Z,60
2017-11-04T12:10:43.063Z,60
2017-11-04T12:11:52.088Z,55
2017-11-04T12:13:01.108Z,60
2017-11-04T12:14:10.462Z,80
2017-11-04T12:15:19.821Z,85
2017-11-04T12:16:29.508Z,90
2017-11-04T12:17:38.863Z,85
2017-11-04T12:18:48.234Z,80
2017-11-04T12:19:57.256Z,65
2017-11-04T12:21:06.947Z,60
2017-11-04T12:22:15.636Z,70
2017-11-04T12:23:25.326Z,85
2017-11-04T12:24:34.351Z,100
2017-11-04T12:25:43.705Z,105
2017-11-04T12:26:53.396Z,100
2017-11-04T12:28:02.416Z,85
2017-11-04T12:29:11.454Z,75
2017-11-04T12:30:20.475Z,70
2017-11-04T12:31:29.497Z,60
2017-11-04T12:32:38.522Z,70
2017-11-04T12:33:47.888Z,65
2017-11-04T12:34:56.907Z,70
2017-11-04T12:36:06.270Z,70
2017-11-04T12:37:15.627Z,70
2017-11-04T12:38:25.323Z,70
2017-11-04T12:39:34.675Z,70
2017-11-04T12:40:44.028Z,70
2017-11-04T12:41:53.385Z,70
2017-11-04T12:43:02.409Z,70
2017-11-04T12:44:11.435Z,65
2017-11-04T12:45:20.794Z,60
2017-11-04T12:46:30.148Z,65
2017-11-04T12:47:39.173Z,70
2017-11-04T12:48:48.205Z,65
2017-11-04T12:49:57.230Z,65
2017-11-04T12:51:06.246Z,60
2017-11-04T12:52:15.605Z,65
2017-11-04T12:53:24.965Z,65
2017-11-04T12:54:34.415Z,65
2017-11-04T12:55:43.108Z,70
2017-11-04T12:56:52.136Z,60
2017-11-04T12:58:00.828Z,65
2017-11-04T12:59:10.185Z,60
2017-11-04T13:00:18.875Z,55
2017-11-04T13:01:28.232Z,55
2017-11-04T13:02:37.583Z,60
2017-11-04T13:03:46.605Z,55
2017-11-04T13:04:55.960Z,70
2017-11-04T13:06:05.369Z,60
2017-11-04T13:07:14.063Z,55
2017-11-04T13:08:23.416Z,45
2017-11-04T13:09:32.769Z,70
2017-11-04T13:10:41.788Z,55
2017-11-04T13:11:51.141Z,50
2017-11-04T13:12:59.835Z,35
2017-11-04T13:14:08.862Z,45
2017-11-04T13:15:17.556Z,40
2017-11-04T13:16:26.580Z,45
2017-11-04T13:17:35.603Z,40
2017-11-04T13:18:44.296Z,35
2017-11-04T13:19:53.318Z,50
2017-11-04T13:21:02.673Z,50
2017-11-04T13:22:12.032Z,45
2017-11-04T13:23:21.393Z,55
2017-11-04T13:24:30.417Z,50
2017-11-04T13:25:40.123Z,60
2017-11-04T13:26:49.476Z,55
2017-11-04T13:27:58.167Z,45
2017-11-04T13:29:06.858Z,40
2017-11-04T13:30:16.547Z,40
2017-11-04T13:31:25.570Z,45
2017-11-04T13:32:34.592Z,40
2017-11-04T13:33:43.952Z,35
2017-11-04T13:34:53.969Z,35
2017-11-04T13:36:02.660Z,30
2017-11-04T13:37:11.687Z,30
2017-11-04T13:38:20.706Z,40
2017-11-04T13:39:29.726Z,40
2017-11-04T13:40:39.076Z,25
2017-11-04T13:41:47.769Z,35
2017-11-04T13:42:56.472Z,35
2017-11-04T13:44:05.151Z,35
2017-11-04T13:45:13.846Z,40
2017-11-04T13:46:22.867Z,50
2017-11-04T13:47:31.891Z,35
2017-11-04T13:48:40.915Z,30
2017-11-04T13:49:49.608Z,35
2017-11-04T13:50:58.631Z,40
2017-11-04T13:52:07.656Z,40
2017-11-04T13:53:17.010Z,45
2017-11-04T13:54:26.029Z,40
2017-11-04T13:55:34.722Z,40
2017-11-04T13:56:44.079Z,40
2017-11-04T13:57:53.100Z,40
2017-11-04T13:59:02.124Z,35
2017-11-04T14:00:11.811Z,25
2017-11-04T14:01:21.166Z,25
2017-11-04T14:02:30.520Z,35
2017-11-04T14:03:39.540Z,40
2017-11-04T14:04:48.900Z,40
2017-11-04T14:05:57.591Z,35
2017-11-04T14:07:06.285Z,40
2017-11-04T14:08:15.969Z,35
2017-11-04T14:09:24.989Z,30
2017-11-04T14:10:34.014Z,35
2017-11-04T14:11:42.712Z,35
2017-11-04T14:12:51.740Z,25
2017-11-04T14:14:00.434Z,25
2017-11-04T14:15:09.122Z,25
2017-11-04T14:16:18.145Z,25
2017-11-04T14:17:27.497Z,25
2017-11-04T14:18:36.521Z,25
2017-11-04T14:19:46.207Z,20
2017-11-04T14:20:55.233Z,20
2017-11-04T14:22:04.621Z,20
2017-11-04T14:23:13.985Z,20
2017-11-04T14:24:23.395Z,20
2017-11-04T14:25:32.756Z,20
2017-11-04T14:26:42.115Z,25
2017-11-04T14:27:51.468Z,20
2017-11-04T14:29:00.156Z,20
2017-11-04T14:30:09.180Z,20
2017-11-04T14:31:18.535Z,20
2017-11-04T14:32:27.895Z,25
2017-11-04T14:33:36.914Z,25
2017-11-04T14:34:46.277Z,20
2017-11-04T14:35:55.296Z,20
2017-11-04T14:37:04.331Z,20
2017-11-04T14:38:13.020Z,15
2017-11-04T14:39:22.044Z,20
2017-11-04T14:40:31.067Z,15
2017-11-04T14:41:40.087Z,15
2017-11-04T14:42:49.438Z,15
2017-11-04T14:43:58.132Z,15
2017-11-04T14:45:07.150Z,15
2017-11-04T14:46:15.841Z,15
2017-11-04T14:47:24.871Z,15
2017-11-04T14:48:34.553Z,10
2017-11-04T14:49:43.579Z,10
2017-11-04T14:50:52.937Z,10
2017-11-04T14:52:01.624Z,10
2017-11-04T14:53:11.643Z,10
2017-11-04T14:54:20.667Z,10
2017-11-04T14:55:29.688Z,10
2017-11-04T14:56:38.380Z,10
2017-11-04T14:57:47.072Z,10
2017-11-04T14:58:56.146Z,10
2017-11-04T15:00:05.502Z,10
2017-11-04T15:01:14.193Z,10
2017-11-04T15:02:23.548Z,10
2017-11-04T15:03:32.572Z,10
2017-11-04T15:04:41.924Z,10
2017-11-04T15:05:50.614Z,10
2017-11-04T15:06:59.634Z,5
2017-11-04T15:08:09.325Z,5
2017-11-04T15:09:18.346Z,5
2017-11-04T15:10:27.421Z,5
2017-11-04T15:11:36.444Z,5
2017-11-04T15:12:45.137Z,5
2017-11-04T15:13:54.495Z,5
2017-11-04T15:15:03.517Z,5
2017-11-04T15:16:12.874Z,5
2017-11-04T15:17:21.895Z,5
2017-11-04T15:18:30.922Z,5
2017-11-04T15:19:39.944Z,5
2017-11-04T15:20:48.681Z,5
2017-11-04T15:21:57.373Z,5
2017-11-04T15:23:06.395Z,5
2017-11-04T15:24:15.418Z,0
2017-11-04T15:25:24.441Z,0
2017-11-04T15:26:34.125Z,0
2017-11-04T15:27:42.815Z,0
2017-11-04T15:28:51.842Z,0
2017-11-04T15:30:01.535Z,0
2017-11-04T15:31:11.223Z,0
2017-11-04T15:32:20.915Z,0
2017-11-04T15:33:29.941Z,0
2017-11-04T15:34:39.020Z,0
2017-11-04T15:35:47.713Z,0
2017-11-04T15:36:57.064Z,0
2017-11-04T15:38:07.096Z,0
2017-11-04T15:39:16.447Z,0
2017-11-04T15:40:25.467Z,0
2017-11-04T15:41:34.488Z,0
2017-11-04T15:42:43.517Z,0
2017-11-04T15:43:52.541Z,0
2017-11-04T15:45:01.229Z,0
2017-11-04T15:46:10.915Z,0
2017-11-04T15:47:20.604Z,0
2017-11-04T15:48:30.632Z,0
2017-11-04T15:49:39.654Z,0
2017-11-04T15:50:48.343Z,0
2017-11-04T15:51:58.036Z,0
2017-11-04T15:53:07.059Z,0
2017-11-04T15:54:16.086Z,0
2017-11-04T15:55:25.108Z,0
2017-11-04T15:56:34.128Z,0
2017-11-04T15:57:43.156Z,0
2017-11-04T15:58:52.514Z,0
2017-11-04T16:00:01.537Z,0
2017-11-04T16:01:11.225Z,0
2017-11-04T16:02:20.586Z,0
2017-11-04T16:03:29.949Z,0
2017-11-04T16:04:38.969Z,0
2017-11-04T16:05:47.991Z,0
2017-11-04T16:06:58.340Z,0
2017-11-04T16:08:07.356Z,0
2017-11-04T16:09:16.380Z,0
2017-11-04T16:10:25.399Z,0
2017-11-04T16:11:34.092Z,0
2017-11-04T16:12:42.779Z,0
2017-11-04T16:13:51.816Z,0
2017-11-04T16:15:00.836Z,0
2017-11-04T16:16:10.185Z,0
2017-11-04T16:17:19.204Z,0
2017-11-04T16:18:27.899Z,0
2017-11-04T16:19:37.915Z,0
2017-11-04T16:20:47.636Z,0
2017-11-04T16:21:56.656Z,0
2017-11-04T16:23:05.676Z,0
2017-11-04T16:24:15.691Z,0
2017-11-04T16:25:24.381Z,0
2017-11-04T16:26:33.405Z,0
2017-11-04T16:27:42.756Z,0
2017-11-04T16:28:53.115Z,0
2017-11-04T16:30:02.137Z,0
2017-11-04T16:31:11.487Z,0
2017-11-04T16:32:20.852Z,0
2017-11-04T16:33:30.542Z,0
2017-11-04T16:34:39.902Z,0
2017-11-04T16:35:48.923Z,0
2017-11-04T16:36:58.276Z,0
2017-11-04T16:38:07.295Z,0
2017-11-04T16:39:16.315Z,0
2017-11-04T16:40:25.337Z,0
2017-11-04T16:41:34.359Z,0